createdAt,value
2023-04-16T00:00:44.397Z,23.75
2023-04-16T00:03:11.215Z,25.13
2023-04-16T00:05:37.953Z,23.83
2023-04-16T00:08:04.529Z,22.92
2023-04-16T00:10:31.173Z,24.58
2023-04-16T00:12:57.789Z,22.50
2023-04-16T00:15:24.311Z,23.85
2023-04-16T00:17:50.807Z,24.65
2023-04-16T00:20:17.760Z,23.20
2023-04-16T00:22:44.224Z,23.50
2023-04-16T00:25:10.764Z,22.75
2023-04-16T00:27:37.406Z,22.83
2023-04-16T00:30:04.097Z,22.27
2023-04-16T00:32:30.996Z,21.08
2023-04-16T00:34:57.512Z,22.10
2023-04-16T00:37:24.060Z,22.50
2023-04-16T00:39:50.982Z,21.77
2023-04-16T00:42:17.510Z,22.05
2023-04-16T00:44:44.046Z,22.70
2023-04-16T00:47:11.594Z,22.50
2023-04-16T00:49:38.144Z,22.25
2023-04-16T00:52:04.725Z,21.27
2023-04-16T00:54:31.811Z,21.85
2023-04-16T00:56:59.544Z,23.25
2023-04-16T00:59:26.946Z,21.88
2023-04-16T01:01:53.593Z,21.92
2023-04-16T01:04:20.863Z,23.20
2023-04-16T01:06:47.545Z,22.50
2023-04-16T01:09:14.234Z,22.10
2023-04-16T01:11:41.067Z,21.27
2023-04-16T01:14:07.690Z,23.42
2023-04-16T01:16:34.285Z,22.08
2023-04-16T01:19:00.851Z,22.33
2023-04-16T01:21:27.490Z,22.90
2023-04-16T01:23:54.051Z,23.13
2023-04-16T01:26:20.591Z,22.10
2023-04-16T01:28:47.305Z,20.83
2023-04-16T01:31:13.856Z,21.75
2023-04-16T01:33:47.258Z,21.23
2023-04-16T01:36:13.857Z,22.80
2023-04-16T01:38:40.615Z,21.27
2023-04-16T01:41:07.305Z,22.42
2023-04-16T01:43:34.868Z,21.30
2023-04-16T01:46:15.189Z,21.83
2023-04-16T01:48:41.795Z,21.17
2023-04-16T01:51:08.339Z,20.75
2023-04-16T01:53:37.005Z,20.75
2023-04-16T01:56:04.116Z,21.60
2023-04-16T01:58:32.489Z,20.85
2023-04-16T02:00:59.374Z,21.00
2023-04-16T02:03:26.520Z,21.65
2023-04-16T02:05:53.187Z,20.63
2023-04-16T02:08:19.664Z,21.35
2023-04-16T02:10:47.840Z,20.85
2023-04-16T02:13:17.463Z,21.27
2023-04-16T02:15:47.657Z,20.55
2023-04-16T02:18:16.453Z,19.67
2023-04-16T02:20:45.337Z,21.02
2023-04-16T02:23:14.990Z,20.38
2023-04-16T02:25:43.245Z,19.95
2023-04-16T02:28:13.451Z,19.13
2023-04-16T02:30:42.030Z,19.95
2023-04-16T02:33:10.573Z,19.20
2023-04-16T02:35:40.441Z,20.05
2023-04-16T02:38:07.953Z,19.23
2023-04-16T02:40:35.835Z,20.55
2023-04-16T02:43:02.873Z,19.92
2023-04-16T02:45:31.759Z,19.85
2023-04-16T02:47:58.640Z,19.75
2023-04-16T02:50:25.588Z,19.75
2023-04-16T02:52:53.893Z,22.00
2023-04-16T02:55:20.778Z,19.63
2023-04-16T02:57:47.953Z,21.80
2023-04-16T03:00:14.732Z,21.40
2023-04-16T03:02:41.489Z,20.98
2023-04-16T03:05:09.401Z,21.00
2023-04-16T03:07:36.417Z,21.88
2023-04-16T03:10:03.599Z,21.83
2023-04-16T03:12:30.248Z,21.70
2023-04-16T03:14:56.904Z,20.55
2023-04-16T03:17:23.518Z,20.38
2023-04-16T03:19:50.958Z,19.85
2023-04-16T03:22:20.021Z,19.48
2023-04-16T03:24:46.958Z,20.40
2023-04-16T03:27:13.672Z,22.08
2023-04-16T03:29:40.510Z,21.63
2023-04-16T03:32:09.591Z,21.60
2023-04-16T03:34:37.147Z,21.25
2023-04-16T03:37:05.913Z,22.83
2023-04-16T03:39:33.963Z,22.75
2023-04-16T03:42:00.580Z,23.25
2023-04-16T03:44:27.748Z,22.60
2023-04-16T03:46:55.775Z,22.35
2023-04-16T03:49:22.639Z,22.88
2023-04-16T03:51:49.515Z,22.48
2023-04-16T03:54:16.269Z,22.35
2023-04-16T03:56:50.045Z,22.23
2023-04-16T03:59:17.409Z,23.20
2023-04-16T04:01:44.612Z,23.38
2023-04-16T04:04:11.666Z,22.92
2023-04-16T04:06:38.415Z,23.23
2023-04-16T04:09:05.079Z,23.23
2023-04-16T04:11:34.091Z,23.33
2023-04-16T04:14:01.745Z,22.73
2023-04-16T04:16:28.703Z,22.58
2023-04-16T04:18:55.656Z,22.20
2023-04-16T04:21:22.594Z,22.33
2023-04-16T04:23:49.829Z,21.30
2023-04-16T04:26:16.465Z,21.05
2023-04-16T04:28:43.110Z,21.30
2023-04-16T04:31:09.754Z,20.95
2023-04-16T04:33:36.687Z,21.75
2023-04-16T04:36:04.543Z,22.33
2023-04-16T04:38:33.385Z,22.35
2023-04-16T04:41:00.057Z,22.92
2023-04-16T04:43:30.333Z,21.95
2023-04-16T04:45:59.124Z,21.50
2023-04-16T04:48:27.982Z,22.27
2023-04-16T04:50:56.373Z,22.45
2023-04-16T04:53:23.717Z,22.08
2023-04-16T04:55:53.159Z,21.55
2023-04-16T04:58:23.009Z,22.55
2023-04-16T05:00:50.527Z,22.27
2023-04-16T05:03:21.448Z,20.33
2023-04-16T05:05:48.510Z,21.30
2023-04-16T05:08:15.337Z,22.05
2023-04-16T05:10:42.173Z,21.58
2023-04-16T05:13:08.897Z,21.35
2023-04-16T05:15:35.495Z,21.77
2023-04-16T05:18:02.027Z,21.00
2023-04-16T05:20:28.703Z,22.00
2023-04-16T05:22:55.759Z,20.70
2023-04-16T05:25:22.749Z,21.63
2023-04-16T05:27:49.290Z,21.48
2023-04-16T05:30:19.466Z,22.08
2023-04-16T05:32:46.324Z,21.67
2023-04-16T05:35:14.246Z,20.98
2023-04-16T05:37:42.082Z,21.02
2023-04-16T05:40:09.400Z,20.85
2023-04-16T05:42:37.746Z,21.15
2023-04-16T05:45:05.137Z,20.65
2023-04-16T05:47:31.700Z,20.60
2023-04-16T05:49:58.696Z,21.63
2023-04-16T05:52:25.785Z,20.50
2023-04-16T05:54:53.083Z,19.77
2023-04-16T05:57:19.986Z,20.35
2023-04-16T05:59:46.883Z,20.10
2023-04-16T06:02:13.542Z,20.88
2023-04-16T06:04:40.486Z,20.73
2023-04-16T06:07:07.152Z,22.15
2023-04-16T06:09:33.748Z,19.85
2023-04-16T06:12:01.579Z,20.88
2023-04-16T06:14:29.456Z,21.08
2023-04-16T06:16:57.404Z,20.52
2023-04-16T06:19:24.206Z,20.88
2023-04-16T06:21:51.364Z,19.65
2023-04-16T06:24:18.928Z,19.10
2023-04-16T06:26:45.901Z,19.33
2023-04-16T06:29:12.645Z,19.17
2023-04-16T06:31:39.303Z,19.38
2023-04-16T06:34:06.089Z,19.40
2023-04-16T06:36:32.889Z,18.73
2023-04-16T06:38:59.434Z,18.70
2023-04-16T06:41:27.033Z,19.20
2023-04-16T06:43:55.067Z,19.30
2023-04-16T06:46:21.799Z,19.13
2023-04-16T06:48:48.354Z,18.40
2023-04-16T06:51:15.716Z,19.75
2023-04-16T06:53:42.652Z,18.50
2023-04-16T06:56:09.261Z,19.17
2023-04-16T06:58:36.418Z,20.17
2023-04-16T07:01:03.183Z,19.75
2023-04-16T07:03:29.857Z,19.88
2023-04-16T07:05:57.138Z,18.05
2023-04-16T07:08:24.601Z,18.80
2023-04-16T07:10:51.980Z,19.58
2023-04-16T07:13:18.680Z,19.02
2023-04-16T07:15:45.480Z,18.67
2023-04-16T07:18:12.082Z,17.80
2023-04-16T07:20:38.734Z,18.92
2023-04-16T07:23:05.497Z,18.35
2023-04-16T07:25:32.093Z,19.08
2023-04-16T07:27:58.837Z,17.67
2023-04-16T07:30:25.609Z,18.85
2023-04-16T07:32:52.776Z,18.75
2023-04-16T07:35:19.448Z,17.98
2023-04-16T07:37:45.999Z,18.65
2023-04-16T07:40:13.765Z,17.55
2023-04-16T07:42:40.555Z,17.67
2023-04-16T07:45:08.020Z,17.35
2023-04-16T07:47:34.737Z,16.92
2023-04-16T07:50:01.227Z,17.52
2023-04-16T07:52:27.872Z,18.52
2023-04-16T07:54:54.880Z,18.73
2023-04-16T07:57:21.683Z,18.55
2023-04-16T07:59:48.213Z,18.20
2023-04-16T08:02:16.997Z,17.98
2023-04-16T08:04:45.584Z,17.67
2023-04-16T08:07:12.519Z,18.08
2023-04-16T08:09:56.160Z,18.05
2023-04-16T08:12:23.360Z,17.55
2023-04-16T08:14:49.865Z,18.42
2023-04-16T08:17:16.746Z,18.50
2023-04-16T08:19:47.723Z,17.48
2023-04-16T08:22:14.825Z,19.45
2023-04-16T08:24:42.978Z,19.15
2023-04-16T08:27:18.548Z,18.98
2023-04-16T08:29:47.746Z,18.88
2023-04-16T08:32:14.325Z,18.70
2023-04-16T08:34:42.016Z,18.23
2023-04-16T08:37:08.920Z,17.45
2023-04-16T08:39:35.958Z,17.90
2023-04-16T08:42:05.222Z,18.15
2023-04-16T08:44:33.772Z,18.52
2023-04-16T08:47:02.435Z,17.10
2023-04-16T08:49:36.013Z,17.73
2023-04-16T08:52:06.188Z,18.17
2023-04-16T08:55:04.124Z,17.10
2023-04-16T08:57:39.526Z,16.85
2023-04-16T09:00:07.968Z,16.25
2023-04-16T09:02:35.439Z,16.77
2023-04-16T09:05:05.314Z,16.88
2023-04-16T09:07:33.543Z,16.15
2023-04-16T09:10:00.899Z,16.90
2023-04-16T09:12:30.020Z,16.67
2023-04-16T09:14:57.618Z,15.63
2023-04-16T09:17:24.234Z,15.32
2023-04-16T09:19:50.947Z,16.15
2023-04-16T09:22:17.598Z,15.63
2023-04-16T09:24:44.502Z,16.25
2023-04-16T09:27:12.814Z,16.13
2023-04-16T09:29:41.082Z,16.42
2023-04-16T09:32:10.236Z,15.30
2023-04-16T09:35:01.854Z,16.10
2023-04-16T09:37:30.004Z,15.07
2023-04-16T09:40:02.299Z,15.88
2023-04-16T09:42:32.825Z,16.77
2023-04-16T09:45:05.501Z,16.15
2023-04-16T09:47:41.808Z,14.80
2023-04-16T09:50:12.515Z,14.88
2023-04-16T09:52:39.676Z,15.18
2023-04-16T09:55:06.784Z,15.88
2023-04-16T09:57:33.314Z,16.00
2023-04-16T10:00:09.339Z,15.82
2023-04-16T10:02:39.049Z,15.25
2023-04-16T10:05:06.438Z,15.57
2023-04-16T10:07:37.554Z,15.18
2023-04-16T10:10:05.425Z,16.15
2023-04-16T10:12:33.043Z,14.68
2023-04-16T10:14:59.737Z,16.10
2023-04-16T10:17:29.926Z,14.90
2023-04-16T10:19:58.320Z,14.73
2023-04-16T10:22:26.242Z,15.55
2023-04-16T10:24:53.967Z,15.23
2023-04-16T10:27:20.756Z,14.90
2023-04-16T10:29:48.921Z,14.45
2023-04-16T10:32:17.944Z,15.00
2023-04-16T10:34:44.921Z,14.40
2023-04-16T10:37:11.498Z,14.57
2023-04-16T10:39:38.237Z,14.10
2023-04-16T10:42:13.365Z,14.05
2023-04-16T10:44:42.793Z,13.63
2023-04-16T10:47:13.465Z,14.18
2023-04-16T10:49:41.336Z,13.45
2023-04-16T10:52:13.526Z,13.73
2023-04-16T10:54:41.755Z,12.20
2023-04-16T10:57:12.609Z,12.75
2023-04-16T10:59:44.175Z,13.13
2023-04-16T11:02:15.643Z,13.77
2023-04-16T11:04:45.342Z,13.20
2023-04-16T11:07:15.678Z,13.35
2023-04-16T11:09:47.790Z,13.88
2023-04-16T11:12:35.178Z,14.27
2023-04-16T11:15:04.375Z,13.40
2023-04-16T11:17:33.655Z,12.88
2023-04-16T11:20:01.118Z,13.10
2023-04-16T11:22:27.964Z,13.75
2023-04-16T11:24:56.812Z,13.63
2023-04-16T11:27:24.920Z,13.77
2023-04-16T11:30:02.270Z,12.65
2023-04-16T11:32:32.676Z,13.35
2023-04-16T11:35:07.229Z,14.00
2023-04-16T11:37:37.772Z,13.57
2023-04-16T11:40:13.366Z,14.48
2023-04-16T11:42:42.229Z,13.63
2023-04-16T11:45:11.068Z,13.50
2023-04-16T11:47:54.848Z,13.35
2023-04-16T11:50:25.466Z,13.93
2023-04-16T11:52:53.557Z,12.75
2023-04-16T11:55:21.455Z,12.80
2023-04-16T11:57:48.605Z,12.73
2023-04-16T12:00:15.907Z,12.40
2023-04-16T12:02:45.602Z,12.50
2023-04-16T12:05:35.966Z,11.95
2023-04-16T12:08:07.502Z,10.98
2023-04-16T12:10:36.630Z,11.48
2023-04-16T12:13:14.104Z,11.75
2023-04-16T12:16:02.811Z,11.45
2023-04-16T12:18:31.195Z,11.60
2023-04-16T12:20:58.004Z,11.95
2023-04-16T12:23:29.832Z,11.38
2023-04-16T12:26:03.148Z,12.30
2023-04-16T12:28:36.709Z,11.30
2023-04-16T12:31:03.610Z,11.68
2023-04-16T12:33:30.927Z,12.02
2023-04-16T12:35:57.876Z,12.32
2023-04-16T12:38:26.293Z,12.07
2023-04-16T12:40:57.425Z,10.80
2023-04-16T12:43:25.460Z,11.82
2023-04-16T12:45:52.346Z,11.52
2023-04-16T12:48:19.280Z,12.40
2023-04-16T12:50:46.068Z,10.93
2023-04-16T12:53:13.201Z,11.32
2023-04-16T12:55:39.785Z,11.38
2023-04-16T12:58:06.885Z,11.98
2023-04-16T13:00:33.890Z,11.48
2023-04-16T13:03:01.599Z,11.80
2023-04-16T13:05:28.344Z,11.77
2023-04-16T13:07:55.244Z,10.65
2023-04-16T13:10:23.723Z,10.95
2023-04-16T13:12:50.567Z,11.55
2023-04-16T13:15:17.133Z,11.38
2023-04-16T13:17:43.768Z,10.98
2023-04-16T13:20:10.784Z,10.90
2023-04-16T13:22:37.784Z,12.00
2023-04-16T13:25:05.240Z,10.88
2023-04-16T13:27:32.632Z,10.35
2023-04-16T13:29:59.536Z,10.02
2023-04-16T13:32:26.354Z,11.10
2023-04-16T13:34:52.903Z,10.43
2023-04-16T13:37:19.817Z,10.23
2023-04-16T13:39:46.446Z,10.23
2023-04-16T13:42:12.994Z,10.80
2023-04-16T13:44:39.553Z,9.80
2023-04-16T13:47:06.951Z,10.05
2023-04-16T13:49:36.108Z,9.50
2023-04-16T13:52:04.056Z,9.75
2023-04-16T13:54:30.836Z,9.23
2023-04-16T13:56:57.519Z,9.00
2023-04-16T13:59:24.317Z,9.90
2023-04-16T14:01:51.292Z,9.10
2023-04-16T14:04:18.575Z,9.27
2023-04-16T14:06:45.418Z,9.40
2023-04-16T14:09:12.067Z,10.02
2023-04-16T14:11:39.026Z,9.30
2023-04-16T14:14:06.728Z,10.43
2023-04-16T14:16:35.459Z,10.27
2023-04-16T14:19:02.250Z,9.95
2023-04-16T14:21:28.894Z,10.30
2023-04-16T14:23:55.468Z,9.32
2023-04-16T14:26:22.944Z,10.30
2023-04-16T14:28:51.400Z,10.32
2023-04-16T14:31:20.108Z,9.73
2023-04-16T14:33:47.658Z,9.77
2023-04-16T14:36:14.360Z,9.48
2023-04-16T14:38:43.368Z,9.80
2023-04-16T14:41:10.929Z,9.63
2023-04-16T14:43:40.380Z,9.68
2023-04-16T14:46:07.252Z,8.65
2023-04-16T14:48:33.988Z,9.43
2023-04-16T14:51:00.603Z,9.77
2023-04-16T14:53:27.670Z,8.27
2023-04-16T14:55:54.315Z,7.75
2023-04-16T14:58:21.940Z,6.80
2023-04-16T15:00:48.568Z,6.80
2023-04-16T15:03:15.559Z,6.90
2023-04-16T15:05:42.200Z,6.88
2023-04-16T15:08:09.326Z,6.65
2023-04-16T15:10:35.835Z,6.82
2023-04-16T15:13:02.376Z,6.18
2023-04-16T15:15:29.548Z,5.38
2023-04-16T15:17:57.260Z,5.47
2023-04-16T15:20:23.792Z,5.22
2023-04-16T15:22:50.634Z,5.50
2023-04-16T15:25:17.450Z,4.65
2023-04-16T15:27:43.994Z,4.35
2023-04-16T15:30:12.634Z,4.85
2023-04-16T15:32:39.334Z,5.07
2023-04-16T15:35:09.810Z,5.15
2023-04-16T15:37:38.760Z,5.22
2023-04-16T15:40:09.880Z,5.60
2023-04-16T15:42:38.236Z,4.93
2023-04-16T15:45:05.142Z,4.65
2023-04-16T15:47:31.739Z,4.90
2023-04-16T15:49:58.277Z,4.68
2023-04-16T15:52:24.917Z,4.75
2023-04-16T15:54:51.971Z,4.88
2023-04-16T15:57:18.509Z,5.25
2023-04-16T15:59:55.794Z,5.05
2023-04-16T16:02:32.348Z,5.10
2023-04-16T16:05:00.300Z,5.00
2023-04-16T16:07:27.534Z,5.35
2023-04-16T16:09:54.153Z,5.30
2023-04-16T16:12:20.953Z,5.13
2023-04-16T16:14:47.836Z,5.03
2023-04-16T16:17:15.322Z,5.55
2023-04-16T16:19:43.061Z,5.30
2023-04-16T16:22:11.024Z,5.85
2023-04-16T16:24:39.371Z,5.22
2023-04-16T16:27:07.428Z,5.25
2023-04-16T16:29:33.946Z,5.60
2023-04-16T16:32:02.121Z,5.90
2023-04-16T16:34:29.097Z,5.90
2023-04-16T16:36:55.913Z,5.95
2023-04-16T16:39:26.917Z,6.00
2023-04-16T16:41:53.727Z,6.25
2023-04-16T16:44:20.796Z,8.82
2023-04-16T16:46:47.833Z,6.70
2023-04-16T16:49:17.522Z,6.72
2023-04-16T16:51:50.155Z,6.97
2023-04-16T16:54:17.879Z,6.53
2023-04-16T16:56:44.452Z,6.45
2023-04-16T16:59:11.583Z,6.60
2023-04-16T17:01:38.450Z,6.88
2023-04-16T17:04:05.598Z,6.93
2023-04-16T17:06:33.267Z,6.35
2023-04-16T17:09:00.806Z,6.38
2023-04-16T17:11:27.990Z,6.18
2023-04-16T17:13:55.068Z,5.70
2023-04-16T17:16:22.854Z,5.97
2023-04-16T17:18:49.949Z,6.65
2023-04-16T17:21:16.941Z,6.88
2023-04-16T17:23:43.786Z,6.95
2023-04-16T17:26:10.599Z,7.15
2023-04-16T17:28:37.341Z,7.20
2023-04-16T17:31:06.237Z,7.45
2023-04-16T17:33:33.093Z,6.93
2023-04-16T17:35:59.631Z,6.65
2023-04-16T17:38:26.560Z,7.25
2023-04-16T17:40:53.095Z,7.40
2023-04-16T17:43:19.998Z,7.43
2023-04-16T17:45:46.715Z,7.53
2023-04-16T17:48:13.582Z,6.65
2023-04-16T17:50:40.089Z,7.50
2023-04-16T17:53:08.500Z,8.35
2023-04-16T17:55:35.872Z,8.15
2023-04-16T17:58:04.238Z,7.53
2023-04-16T18:00:31.245Z,7.88
2023-04-16T18:02:59.770Z,7.68
2023-04-16T18:05:27.692Z,8.25
2023-04-16T18:07:55.699Z,7.82
2023-04-16T18:10:22.394Z,7.22
2023-04-16T18:12:49.205Z,7.97
2023-04-16T18:15:15.969Z,7.70
2023-04-16T18:17:42.644Z,6.80
2023-04-16T18:20:11.764Z,7.18
2023-04-16T18:22:38.526Z,7.43
2023-04-16T18:25:06.773Z,7.70
2023-04-16T18:27:33.803Z,7.43
2023-04-16T18:30:00.726Z,7.90
2023-04-16T18:32:30.852Z,6.88
2023-04-16T18:34:57.940Z,8.30
2023-04-16T18:37:24.653Z,8.40
2023-04-16T18:39:51.492Z,7.90
2023-04-16T18:42:18.047Z,7.50
2023-04-16T18:44:51.683Z,8.70
2023-04-16T18:47:18.425Z,8.18
2023-04-16T18:49:46.505Z,8.55
2023-04-16T18:52:13.651Z,7.93
2023-04-16T18:54:41.121Z,8.25
2023-04-16T18:57:10.372Z,8.65
2023-04-16T18:59:37.174Z,8.50
2023-04-16T19:02:04.345Z,8.15
2023-04-16T19:04:33.588Z,8.05
2023-04-16T19:07:01.113Z,8.80
2023-04-16T19:09:27.680Z,7.80
2023-04-16T19:11:54.638Z,7.85
2023-04-16T19:14:21.428Z,8.07
2023-04-16T19:16:48.056Z,8.65
2023-04-16T19:19:15.715Z,8.77
2023-04-16T19:21:42.327Z,8.63
2023-04-16T19:24:09.359Z,7.68
2023-04-16T19:26:36.189Z,8.68
2023-04-16T19:29:03.089Z,7.68
2023-04-16T19:31:29.867Z,8.05
2023-04-16T19:33:56.536Z,8.20
2023-04-16T19:36:23.554Z,8.27
2023-04-16T19:38:50.660Z,8.77
2023-04-16T19:41:17.672Z,8.52
2023-04-16T19:43:44.431Z,8.82
2023-04-16T19:46:11.192Z,8.70
2023-04-16T19:48:37.870Z,8.27
2023-04-16T19:51:05.663Z,8.45
2023-04-16T19:53:32.708Z,8.98
2023-04-16T19:56:01.264Z,8.70
2023-04-16T19:58:28.136Z,8.20
2023-04-16T20:00:55.979Z,8.70
2023-04-16T20:03:22.602Z,7.88
2023-04-16T20:05:50.000Z,8.02
2023-04-16T20:08:17.098Z,8.27
2023-04-16T20:10:43.869Z,7.85
2023-04-16T20:13:13.715Z,8.48
2023-04-16T20:15:40.464Z,9.02
2023-04-16T20:18:09.173Z,8.05
2023-04-16T20:20:38.066Z,8.52
2023-04-16T20:23:05.524Z,7.97
2023-04-16T20:25:36.426Z,7.68
2023-04-16T20:28:10.437Z,8.73
2023-04-16T20:30:39.890Z,8.30
2023-04-16T20:33:08.573Z,8.00
2023-04-16T20:35:35.548Z,7.85
2023-04-16T20:38:02.149Z,8.27
2023-04-16T20:40:31.775Z,8.27
2023-04-16T20:43:01.746Z,8.18
2023-04-16T20:45:32.339Z,8.77
2023-04-16T20:47:59.832Z,7.93
2023-04-16T20:50:26.974Z,7.72
2023-04-16T20:52:53.662Z,8.52
2023-04-16T20:55:20.637Z,8.00
2023-04-16T20:57:47.706Z,8.20
2023-04-16T21:00:15.933Z,7.75
2023-04-16T21:02:45.870Z,7.80
2023-04-16T21:05:16.595Z,9.07
2023-04-16T21:07:43.524Z,8.40
2023-04-16T21:10:11.009Z,7.90
2023-04-16T21:12:37.940Z,8.38
2023-04-16T21:15:07.736Z,8.70
2023-04-16T21:17:34.617Z,8.77
2023-04-16T21:20:01.490Z,9.10
2023-04-16T21:22:29.417Z,7.70
2023-04-16T21:24:56.191Z,7.68
2023-04-16T21:27:22.729Z,8.73
2023-04-16T21:29:50.906Z,8.85
2023-04-16T21:32:17.539Z,8.10
2023-04-16T21:34:44.404Z,8.10
2023-04-16T21:37:11.206Z,8.15
2023-04-16T21:39:37.941Z,9.25
2023-04-16T21:42:04.748Z,8.05
2023-04-16T21:44:31.598Z,8.82
2023-04-16T21:46:58.919Z,8.82
2023-04-16T21:49:25.709Z,8.70
2023-04-16T21:51:58.952Z,9.20
2023-04-16T21:54:25.762Z,8.98
2023-04-16T21:56:52.512Z,9.07
2023-04-16T21:59:19.141Z,8.50
2023-04-16T22:01:45.889Z,8.43
2023-04-16T22:04:12.835Z,8.85
2023-04-16T22:06:40.278Z,8.88
2023-04-16T22:09:07.486Z,9.00
2023-04-16T22:11:34.051Z,8.45
2023-04-16T22:14:00.598Z,8.50
2023-04-16T22:16:27.304Z,8.05
2023-04-16T22:18:55.093Z,8.88
2023-04-16T22:21:21.734Z,8.27
2023-04-16T22:23:48.413Z,8.27
2023-04-16T22:26:15.335Z,9.07
2023-04-16T22:28:41.885Z,8.82
2023-04-16T22:31:08.759Z,9.00
2023-04-16T22:33:35.576Z,8.52
2023-04-16T22:36:02.278Z,9.25
2023-04-16T22:38:28.940Z,9.13
2023-04-16T22:40:55.507Z,8.48
2023-04-16T22:43:22.052Z,8.43
2023-04-16T22:45:48.692Z,8.52
2023-04-16T22:48:15.702Z,9.20
2023-04-16T22:50:48.555Z,9.05
2023-04-16T22:53:15.800Z,9.10
2023-04-16T22:55:42.444Z,8.70
2023-04-16T22:58:09.002Z,8.98
2023-04-16T23:00:36.036Z,7.93
2023-04-16T23:03:02.752Z,9.32
2023-04-16T23:05:29.571Z,9.18
2023-04-16T23:07:56.430Z,9.20
2023-04-16T23:10:23.226Z,8.65
2023-04-16T23:12:50.017Z,8.88
2023-04-16T23:15:18.339Z,8.48
2023-04-16T23:17:46.026Z,8.73
2023-04-16T23:20:13.271Z,9.32
2023-04-16T23:22:40.886Z,9.38
2023-04-16T23:25:09.028Z,9.75
2023-04-16T23:27:36.522Z,8.65
2023-04-16T23:30:03.565Z,9.35
2023-04-16T23:32:30.324Z,10.07
2023-04-16T23:34:57.245Z,9.75
2023-04-16T23:37:24.944Z,10.18
2023-04-16T23:39:51.673Z,9.82
2023-04-16T23:42:18.884Z,9.40
2023-04-16T23:44:45.645Z,10.00
2023-04-16T23:47:12.363Z,9.45
2023-04-16T23:49:39.923Z,9.10
2023-04-16T23:52:07.975Z,9.80
2023-04-16T23:54:35.741Z,10.13
2023-04-16T23:57:02.294Z,9.50
2023-04-16T23:59:28.981Z,9.40
